sensor_id;sensor_type;location;lat;lon;timestamp;P1;durP1;ratioP1;P2;durP2;ratioP2
14048;SDS011;7099;53.922;10.728;2022-07-25T00:00:06;7.63;;;6.90;;
14048;SDS011;7099;53.922;10.728;2022-07-25T00:04:34;10.83;;;7.20;;
14048;SDS011;7099;53.922;10.728;2022-07-25T00:08:59;7.40;;;6.53;;
14048;SDS011;7099;53.922;10.728;2022-07-25T00:13:25;7.57;;;6.80;;
14048;SDS011;7099;53.922;10.728;2022-07-25T00:17:50;8.17;;;6.10;;
14048;SDS011;7099;53.922;10.728;2022-07-25T00:22:15;7.13;;;6.43;;
14048;SDS011;7099;53.922;10.728;2022-07-25T00:26:40;8.53;;;6.40;;
14048;SDS011;7099;53.922;10.728;2022-07-25T00:31:06;7.20;;;6.50;;
14048;SDS011;7099;53.922;10.728;2022-07-25T00:35:31;7.20;;;6.50;;
14048;SDS011;7099;53.922;10.728;2022-07-25T00:39:56;7.97;;;6.72;;
14048;SDS011;7099;53.922;10.728;2022-07-25T00:48:51;14.10;;;7.43;;
14048;SDS011;7099;53.922;10.728;2022-07-25T00:53:17;7.20;;;6.50;;
14048;SDS011;7099;53.922;10.728;2022-07-25T00:57:43;7.50;;;6.45;;
14048;SDS011;7099;53.922;10.728;2022-07-25T01:02:08;7.27;;;6.50;;
14048;SDS011;7099;53.922;10.728;2022-07-25T01:06:34;8.05;;;6.90;;
14048;SDS011;7099;53.922;10.728;2022-07-25T01:10:59;9.70;;;6.53;;
14048;SDS011;7099;53.922;10.728;2022-07-25T01:15:24;7.70;;;6.57;;
14048;SDS011;7099;53.922;10.728;2022-07-25T01:19:50;6.73;;;6.10;;
14048;SDS011;7099;53.922;10.728;2022-07-25T01:24:16;6.73;;;6.03;;
14048;SDS011;7099;53.922;10.728;2022-07-25T01:28:42;6.87;;;5.60;;
14048;SDS011;7099;53.922;10.728;2022-07-25T01:33:07;10.10;;;7.43;;
14048;SDS011;7099;53.922;10.728;2022-07-25T01:37:32;9.95;;;6.80;;
14048;SDS011;7099;53.922;10.728;2022-07-25T01:41:58;6.87;;;6.20;;
14048;SDS011;7099;53.922;10.728;2022-07-25T01:46:24;8.43;;;6.30;;
14048;SDS011;7099;53.922;10.728;2022-07-25T01:50:50;6.67;;;5.97;;
14048;SDS011;7099;53.922;10.728;2022-07-25T01:55:15;7.70;;;5.90;;
14048;SDS011;7099;53.922;10.728;2022-07-25T01:59:42;6.00;;;5.40;;
14048;SDS011;7099;53.922;10.728;2022-07-25T02:04:07;7.40;;;5.90;;
14048;SDS011;7099;53.922;10.728;2022-07-25T02:08:33;7.60;;;6.23;;
14048;SDS011;7099;53.922;10.728;2022-07-25T02:12:59;8.03;;;5.40;;
14048;SDS011;7099;53.922;10.728;2022-07-25T02:17:25;6.87;;;5.50;;
14048;SDS011;7099;53.922;10.728;2022-07-25T02:21:50;6.72;;;5.15;;
14048;SDS011;7099;53.922;10.728;2022-07-25T02:26:16;7.93;;;5.60;;
14048;SDS011;7099;53.922;10.728;2022-07-25T02:30:41;9.13;;;4.70;;
14048;SDS011;7099;53.922;10.728;2022-07-25T02:35:07;5.93;;;5.33;;
14048;SDS011;7099;53.922;10.728;2022-07-25T02:39:36;6.30;;;5.10;;
14048;SDS011;7099;53.922;10.728;2022-07-25T02:44:02;5.27;;;4.77;;
14048;SDS011;7099;53.922;10.728;2022-07-25T02:48:30;7.93;;;5.07;;
14048;SDS011;7099;53.922;10.728;2022-07-25T02:52:55;6.90;;;5.30;;
14048;SDS011;7099;53.922;10.728;2022-07-25T02:57:21;4.73;;;4.23;;
14048;SDS011;7099;53.922;10.728;2022-07-25T03:01:46;4.35;;;3.95;;
14048;SDS011;7099;53.922;10.728;2022-07-25T03:06:11;5.70;;;4.20;;
14048;SDS011;7099;53.922;10.728;2022-07-25T03:10:37;7.10;;;4.37;;
14048;SDS011;7099;53.922;10.728;2022-07-25T03:15:03;4.83;;;4.33;;
14048;SDS011;7099;53.922;10.728;2022-07-25T03:19:29;6.70;;;3.83;;
14048;SDS011;7099;53.922;10.728;2022-07-25T03:23:55;6.63;;;4.30;;
14048;SDS011;7099;53.922;10.728;2022-07-25T03:28:21;4.53;;;4.10;;
14048;SDS011;7099;53.922;10.728;2022-07-25T03:32:48;5.93;;;4.10;;
14048;SDS011;7099;53.922;10.728;2022-07-25T03:37:13;5.03;;;3.77;;
14048;SDS011;7099;53.922;10.728;2022-07-25T03:41:39;4.50;;;4.10;;
14048;SDS011;7099;53.922;10.728;2022-07-25T03:46:04;3.40;;;3.10;;
14048;SDS011;7099;53.922;10.728;2022-07-25T03:50:29;3.60;;;3.30;;
14048;SDS011;7099;53.922;10.728;2022-07-25T03:54:55;4.73;;;3.50;;
14048;SDS011;7099;53.922;10.728;2022-07-25T03:59:20;6.77;;;3.40;;
14048;SDS011;7099;53.922;10.728;2022-07-25T04:03:46;5.07;;;3.80;;
14048;SDS011;7099;53.922;10.728;2022-07-25T04:08:11;4.10;;;3.70;;
14048;SDS011;7099;53.922;10.728;2022-07-25T04:12:37;3.77;;;3.03;;
14048;SDS011;7099;53.922;10.728;2022-07-25T04:17:02;3.20;;;2.90;;
14048;SDS011;7099;53.922;10.728;2022-07-25T04:21:29;2.83;;;2.60;;
14048;SDS011;7099;53.922;10.728;2022-07-25T04:25:55;4.77;;;3.00;;
14048;SDS011;7099;53.922;10.728;2022-07-25T04:30:21;5.73;;;3.00;;
14048;SDS011;7099;53.922;10.728;2022-07-25T04:34:48;3.63;;;2.30;;
14048;SDS011;7099;53.922;10.728;2022-07-25T04:39:14;2.40;;;2.20;;
14048;SDS011;7099;53.922;10.728;2022-07-25T04:43:40;2.70;;;2.30;;
14048;SDS011;7099;53.922;10.728;2022-07-25T04:48:12;2.53;;;2.30;;
14048;SDS011;7099;53.922;10.728;2022-07-25T04:52:37;2.20;;;2.00;;
14048;SDS011;7099;53.922;10.728;2022-07-25T04:57:02;2.87;;;2.37;;
14048;SDS011;7099;53.922;10.728;2022-07-25T05:01:28;3.00;;;2.70;;
14048;SDS011;7099;53.922;10.728;2022-07-25T05:05:54;3.87;;;2.40;;
14048;SDS011;7099;53.922;10.728;2022-07-25T05:10:19;2.90;;;2.60;;
14048;SDS011;7099;53.922;10.728;2022-07-25T05:14:44;3.73;;;2.17;;
14048;SDS011;7099;53.922;10.728;2022-07-25T05:19:10;4.10;;;2.37;;
14048;SDS011;7099;53.922;10.728;2022-07-25T05:23:35;3.70;;;2.20;;
14048;SDS011;7099;53.922;10.728;2022-07-25T05:28:01;2.97;;;2.63;;
14048;SDS011;7099;53.922;10.728;2022-07-25T05:32:26;5.97;;;2.80;;
14048;SDS011;7099;53.922;10.728;2022-07-25T05:36:52;2.90;;;2.37;;
14048;SDS011;7099;53.922;10.728;2022-07-25T05:41:17;4.40;;;2.50;;
14048;SDS011;7099;53.922;10.728;2022-07-25T05:45:42;4.13;;;2.47;;
14048;SDS011;7099;53.922;10.728;2022-07-25T05:50:07;2.87;;;2.57;;
14048;SDS011;7099;53.922;10.728;2022-07-25T05:54:33;3.58;;;2.78;;
14048;SDS011;7099;53.922;10.728;2022-07-25T05:58:58;5.03;;;2.60;;
14048;SDS011;7099;53.922;10.728;2022-07-25T06:03:24;2.80;;;2.10;;
14048;SDS011;7099;53.922;10.728;2022-07-25T06:07:49;2.27;;;2.07;;
14048;SDS011;7099;53.922;10.728;2022-07-25T06:12:15;2.73;;;2.13;;
14048;SDS011;7099;53.922;10.728;2022-07-25T06:16:41;5.73;;;2.37;;
14048;SDS011;7099;53.922;10.728;2022-07-25T06:21:07;4.43;;;2.23;;
14048;SDS011;7099;53.922;10.728;2022-07-25T06:25:32;2.83;;;2.40;;
14048;SDS011;7099;53.922;10.728;2022-07-25T06:29:57;4.80;;;2.63;;
14048;SDS011;7099;53.922;10.728;2022-07-25T06:34:23;3.23;;;2.63;;
14048;SDS011;7099;53.922;10.728;2022-07-25T06:38:52;3.27;;;2.60;;
14048;SDS011;7099;53.922;10.728;2022-07-25T06:43:17;3.90;;;2.57;;
14048;SDS011;7099;53.922;10.728;2022-07-25T06:47:43;3.27;;;2.17;;
14048;SDS011;7099;53.922;10.728;2022-07-25T06:52:09;3.60;;;2.90;;
14048;SDS011;7099;53.922;10.728;2022-07-25T06:56:34;4.57;;;2.80;;
14048;SDS011;7099;53.922;10.728;2022-07-25T07:00:59;3.80;;;2.43;;
14048;SDS011;7099;53.922;10.728;2022-07-25T07:05:25;2.80;;;2.00;;
14048;SDS011;7099;53.922;10.728;2022-07-25T07:09:56;3.10;;;2.60;;
14048;SDS011;7099;53.922;10.728;2022-07-25T07:14:21;3.07;;;2.77;;
14048;SDS011;7099;53.922;10.728;2022-07-25T07:18:47;6.93;;;2.50;;
14048;SDS011;7099;53.922;10.728;2022-07-25T07:23:13;3.30;;;2.50;;
14048;SDS011;7099;53.922;10.728;2022-07-25T07:27:40;3.80;;;2.70;;
14048;SDS011;7099;53.922;10.728;2022-07-25T07:32:07;3.85;;;2.58;;
14048;SDS011;7099;53.922;10.728;2022-07-25T07:36:32;2.87;;;2.57;;
14048;SDS011;7099;53.922;10.728;2022-07-25T07:40:58;3.50;;;2.40;;
14048;SDS011;7099;53.922;10.728;2022-07-25T07:45:23;5.03;;;3.20;;
14048;SDS011;7099;53.922;10.728;2022-07-25T07:49:49;5.13;;;2.67;;
14048;SDS011;7099;53.922;10.728;2022-07-25T07:54:14;4.60;;;2.77;;
14048;SDS011;7099;53.922;10.728;2022-07-25T07:58:58;3.20;;;2.80;;
14048;SDS011;7099;53.922;10.728;2022-07-25T08:03:23;5.37;;;3.17;;
14048;SDS011;7099;53.922;10.728;2022-07-25T08:07:49;2.70;;;2.50;;
14048;SDS011;7099;53.922;10.728;2022-07-25T08:12:16;9.20;;;3.47;;
14048;SDS011;7099;53.922;10.728;2022-07-25T08:16:41;10.83;;;3.43;;
14048;SDS011;7099;53.922;10.728;2022-07-25T08:21:06;3.33;;;3.03;;
14048;SDS011;7099;53.922;10.728;2022-07-25T08:25:32;11.20;;;3.40;;
14048;SDS011;7099;53.922;10.728;2022-07-25T08:29:58;3.70;;;3.23;;
14048;SDS011;7099;53.922;10.728;2022-07-25T08:34:24;5.47;;;3.47;;
14048;SDS011;7099;53.922;10.728;2022-07-25T08:38:50;5.17;;;3.00;;
14048;SDS011;7099;53.922;10.728;2022-07-25T08:43:15;4.23;;;3.50;;
14048;SDS011;7099;53.922;10.728;2022-07-25T08:47:41;3.70;;;3.10;;
14048;SDS011;7099;53.922;10.728;2022-07-25T08:52:07;7.90;;;3.20;;
14048;SDS011;7099;53.922;10.728;2022-07-25T08:56:33;4.10;;;3.23;;
14048;SDS011;7099;53.922;10.728;2022-07-25T09:00:59;7.07;;;3.43;;
14048;SDS011;7099;53.922;10.728;2022-07-25T09:05:26;5.00;;;3.53;;
14048;SDS011;7099;53.922;10.728;2022-07-25T09:09:53;5.13;;;3.47;;
14048;SDS011;7099;53.922;10.728;2022-07-25T09:14:19;3.70;;;3.37;;
14048;SDS011;7099;53.922;10.728;2022-07-25T09:18:44;10.03;;;3.20;;
14048;SDS011;7099;53.922;10.728;2022-07-25T09:23:10;3.60;;;3.30;;
14048;SDS011;7099;53.922;10.728;2022-07-25T09:28:07;4.10;;;3.40;;
14048;SDS011;7099;53.922;10.728;2022-07-25T09:32:42;4.77;;;3.70;;
14048;SDS011;7099;53.922;10.728;2022-07-25T09:37:11;6.90;;;3.80;;
14048;SDS011;7099;53.922;10.728;2022-07-25T09:41:39;6.60;;;4.10;;
14048;SDS011;7099;53.922;10.728;2022-07-25T09:46:06;5.20;;;3.90;;
14048;SDS011;7099;53.922;10.728;2022-07-25T09:50:32;7.83;;;4.10;;
14048;SDS011;7099;53.922;10.728;2022-07-25T09:55:00;6.00;;;3.83;;
14048;SDS011;7099;53.922;10.728;2022-07-25T09:59:28;4.80;;;3.87;;
14048;SDS011;7099;53.922;10.728;2022-07-25T10:04:11;8.23;;;4.00;;
14048;SDS011;7099;53.922;10.728;2022-07-25T10:08:48;11.00;;;4.50;;
14048;SDS011;7099;53.922;10.728;2022-07-25T10:13:15;6.00;;;3.90;;
14048;SDS011;7099;53.922;10.728;2022-07-25T10:18:02;5.20;;;3.80;;
14048;SDS011;7099;53.922;10.728;2022-07-25T10:22:37;6.07;;;4.03;;
14048;SDS011;7099;53.922;10.728;2022-07-25T10:27:21;10.30;;;3.77;;
14048;SDS011;7099;53.922;10.728;2022-07-25T10:31:48;5.00;;;4.47;;
14048;SDS011;7099;53.922;10.728;2022-07-25T10:36:15;4.40;;;3.60;;
14048;SDS011;7099;53.922;10.728;2022-07-25T10:40:43;9.30;;;4.23;;
14048;SDS011;7099;53.922;10.728;2022-07-25T10:45:10;4.10;;;3.70;;
14048;SDS011;7099;53.922;10.728;2022-07-25T10:49:42;10.70;;;5.20;;
14048;SDS011;7099;53.922;10.728;2022-07-25T10:54:36;6.17;;;3.77;;
14048;SDS011;7099;53.922;10.728;2022-07-25T10:59:02;8.20;;;4.17;;
14048;SDS011;7099;53.922;10.728;2022-07-25T11:03:31;4.30;;;3.87;;
14048;SDS011;7099;53.922;10.728;2022-07-25T11:07:57;8.00;;;4.77;;
14048;SDS011;7099;53.922;10.728;2022-07-25T11:12:45;7.37;;;4.90;;
14048;SDS011;7099;53.922;10.728;2022-07-25T11:17:16;4.23;;;3.83;;
14048;SDS011;7099;53.922;10.728;2022-07-25T11:21:46;5.93;;;4.33;;
14048;SDS011;7099;53.922;10.728;2022-07-25T11:26:14;9.23;;;3.80;;
14048;SDS011;7099;53.922;10.728;2022-07-25T11:30:40;4.60;;;3.60;;
14048;SDS011;7099;53.922;10.728;2022-07-25T11:35:05;5.20;;;3.90;;
14048;SDS011;7099;53.922;10.728;2022-07-25T11:39:33;7.30;;;4.00;;
14048;SDS011;7099;53.922;10.728;2022-07-25T11:44:01;4.43;;;4.03;;
14048;SDS011;7099;53.922;10.728;2022-07-25T11:48:33;6.27;;;4.00;;
14048;SDS011;7099;53.922;10.728;2022-07-25T11:53:04;4.43;;;3.80;;
14048;SDS011;7099;53.922;10.728;2022-07-25T11:57:32;5.03;;;3.67;;
14048;SDS011;7099;53.922;10.728;2022-07-25T12:02:00;7.80;;;3.57;;
14048;SDS011;7099;53.922;10.728;2022-07-25T12:06:27;5.60;;;4.20;;
14048;SDS011;7099;53.922;10.728;2022-07-25T12:10:53;4.80;;;4.00;;
14048;SDS011;7099;53.922;10.728;2022-07-25T12:15:20;4.60;;;3.90;;
14048;SDS011;7099;53.922;10.728;2022-07-25T12:19:48;3.83;;;3.43;;
14048;SDS011;7099;53.922;10.728;2022-07-25T12:24:13;9.20;;;4.00;;
14048;SDS011;7099;53.922;10.728;2022-07-25T12:28:39;7.07;;;4.10;;
14048;SDS011;7099;53.922;10.728;2022-07-25T12:33:05;7.83;;;4.10;;
14048;SDS011;7099;53.922;10.728;2022-07-25T12:37:31;4.20;;;3.60;;
14048;SDS011;7099;53.922;10.728;2022-07-25T12:41:56;6.10;;;3.80;;
14048;SDS011;7099;53.922;10.728;2022-07-25T12:46:21;5.93;;;3.63;;
14048;SDS011;7099;53.922;10.728;2022-07-25T12:50:47;4.80;;;3.50;;
14048;SDS011;7099;53.922;10.728;2022-07-25T12:55:13;5.83;;;3.57;;
14048;SDS011;7099;53.922;10.728;2022-07-25T12:59:41;8.20;;;4.47;;
14048;SDS011;7099;53.922;10.728;2022-07-25T13:04:07;4.33;;;3.93;;
14048;SDS011;7099;53.922;10.728;2022-07-25T13:08:32;4.27;;;3.60;;
14048;SDS011;7099;53.922;10.728;2022-07-25T13:13:01;5.43;;;4.00;;
14048;SDS011;7099;53.922;10.728;2022-07-25T13:17:27;3.97;;;3.67;;
14048;SDS011;7099;53.922;10.728;2022-07-25T13:21:52;6.27;;;4.07;;
14048;SDS011;7099;53.922;10.728;2022-07-25T13:26:17;8.90;;;3.83;;
14048;SDS011;7099;53.922;10.728;2022-07-25T13:30:43;3.57;;;3.20;;
14048;SDS011;7099;53.922;10.728;2022-07-25T13:35:08;4.17;;;3.77;;
14048;SDS011;7099;53.922;10.728;2022-07-25T13:39:34;8.73;;;3.77;;
14048;SDS011;7099;53.922;10.728;2022-07-25T13:44:01;4.93;;;3.80;;
14048;SDS011;7099;53.922;10.728;2022-07-25T13:48:27;4.93;;;4.07;;
14048;SDS011;7099;53.922;10.728;2022-07-25T13:52:55;9.70;;;3.73;;
14048;SDS011;7099;53.922;10.728;2022-07-25T13:57:20;7.50;;;3.73;;
14048;SDS011;7099;53.922;10.728;2022-07-25T14:01:46;4.03;;;3.40;;
14048;SDS011;7099;53.922;10.728;2022-07-25T14:06:12;5.20;;;3.87;;
14048;SDS011;7099;53.922;10.728;2022-07-25T14:10:37;4.03;;;3.73;;
14048;SDS011;7099;53.922;10.728;2022-07-25T14:15:02;5.27;;;3.70;;
14048;SDS011;7099;53.922;10.728;2022-07-25T14:19:28;7.20;;;4.27;;
14048;SDS011;7099;53.922;10.728;2022-07-25T14:23:54;4.30;;;3.90;;
14048;SDS011;7099;53.922;10.728;2022-07-25T14:28:19;6.80;;;4.97;;
14048;SDS011;7099;53.922;10.728;2022-07-25T14:32:44;5.27;;;4.40;;
14048;SDS011;7099;53.922;10.728;2022-07-25T14:37:10;4.63;;;4.13;;
14048;SDS011;7099;53.922;10.728;2022-07-25T14:41:36;7.73;;;4.37;;
14048;SDS011;7099;53.922;10.728;2022-07-25T14:46:01;7.30;;;3.90;;
14048;SDS011;7099;53.922;10.728;2022-07-25T14:50:26;5.80;;;3.77;;
14048;SDS011;7099;53.922;10.728;2022-07-25T14:54:52;6.50;;;3.60;;
14048;SDS011;7099;53.922;10.728;2022-07-25T14:59:17;5.10;;;4.60;;
14048;SDS011;7099;53.922;10.728;2022-07-25T15:03:43;5.97;;;4.50;;
14048;SDS011;7099;53.922;10.728;2022-07-25T15:08:08;8.50;;;4.80;;
14048;SDS011;7099;53.922;10.728;2022-07-25T15:12:36;4.87;;;4.37;;
14048;SDS011;7099;53.922;10.728;2022-07-25T15:17:01;7.00;;;5.97;;
14048;SDS011;7099;53.922;10.728;2022-07-25T15:21:26;7.87;;;7.07;;
14048;SDS011;7099;53.922;10.728;2022-07-25T15:25:52;11.33;;;8.90;;
14048;SDS011;7099;53.922;10.728;2022-07-25T15:30:27;11.00;;;9.10;;
14048;SDS011;7099;53.922;10.728;2022-07-25T15:34:53;9.90;;;8.50;;
14048;SDS011;7099;53.922;10.728;2022-07-25T15:39:18;10.30;;;8.40;;
14048;SDS011;7099;53.922;10.728;2022-07-25T15:43:43;9.27;;;6.80;;
14048;SDS011;7099;53.922;10.728;2022-07-25T15:48:09;9.13;;;5.70;;
14048;SDS011;7099;53.922;10.728;2022-07-25T15:52:37;7.80;;;4.40;;
14048;SDS011;7099;53.922;10.728;2022-07-25T15:57:02;7.93;;;4.90;;
14048;SDS011;7099;53.922;10.728;2022-07-25T16:01:29;8.80;;;4.60;;
14048;SDS011;7099;53.922;10.728;2022-07-25T16:05:54;9.57;;;4.83;;
14048;SDS011;7099;53.922;10.728;2022-07-25T16:10:20;6.20;;;3.83;;
14048;SDS011;7099;53.922;10.728;2022-07-25T16:14:46;4.67;;;3.80;;
14048;SDS011;7099;53.922;10.728;2022-07-25T16:19:12;3.50;;;3.20;;
14048;SDS011;7099;53.922;10.728;2022-07-25T16:23:37;10.63;;;3.30;;
14048;SDS011;7099;53.922;10.728;2022-07-25T16:28:08;8.47;;;3.13;;
14048;SDS011;7099;53.922;10.728;2022-07-25T16:32:34;7.03;;;3.90;;
14048;SDS011;7099;53.922;10.728;2022-07-25T16:37:00;8.03;;;4.13;;
14048;SDS011;7099;53.922;10.728;2022-07-25T16:41:26;8.40;;;4.00;;
14048;SDS011;7099;53.922;10.728;2022-07-25T16:45:54;9.67;;;3.90;;
14048;SDS011;7099;53.922;10.728;2022-07-25T16:50:19;6.40;;;3.83;;
14048;SDS011;7099;53.922;10.728;2022-07-25T16:54:45;5.43;;;3.40;;
14048;SDS011;7099;53.922;10.728;2022-07-25T16:59:11;6.67;;;3.00;;
14048;SDS011;7099;53.922;10.728;2022-07-25T17:03:37;7.97;;;3.28;;
14048;SDS011;7099;53.922;10.728;2022-07-25T17:08:03;5.40;;;3.33;;
14048;SDS011;7099;53.922;10.728;2022-07-25T17:12:28;6.00;;;3.40;;
14048;SDS011;7099;53.922;10.728;2022-07-25T17:16:54;6.67;;;3.20;;
14048;SDS011;7099;53.922;10.728;2022-07-25T17:21:19;4.70;;;2.40;;
14048;SDS011;7099;53.922;10.728;2022-07-25T17:25:45;2.97;;;2.03;;
14048;SDS011;7099;53.922;10.728;2022-07-25T17:30:14;3.00;;;2.70;;
14048;SDS011;7099;53.922;10.728;2022-07-25T17:34:39;8.23;;;3.30;;
14048;SDS011;7099;53.922;10.728;2022-07-25T17:39:05;7.00;;;3.27;;
14048;SDS011;7099;53.922;10.728;2022-07-25T17:43:31;11.37;;;3.73;;
14048;SDS011;7099;53.922;10.728;2022-07-25T17:47:56;9.33;;;3.90;;
14048;SDS011;7099;53.922;10.728;2022-07-25T17:52:22;5.33;;;3.20;;
14048;SDS011;7099;53.922;10.728;2022-07-25T17:56:47;9.95;;;4.03;;
14048;SDS011;7099;53.922;10.728;2022-07-25T18:01:12;6.70;;;3.70;;
14048;SDS011;7099;53.922;10.728;2022-07-25T18:05:38;9.33;;;4.03;;
14048;SDS011;7099;53.922;10.728;2022-07-25T18:10:03;9.37;;;4.20;;
14048;SDS011;7099;53.922;10.728;2022-07-25T18:14:30;8.03;;;4.20;;
14048;SDS011;7099;53.922;10.728;2022-07-25T18:18:57;9.87;;;4.40;;
14048;SDS011;7099;53.922;10.728;2022-07-25T18:23:24;7.03;;;3.70;;
14048;SDS011;7099;53.922;10.728;2022-07-25T18:27:50;8.60;;;3.70;;
14048;SDS011;7099;53.922;10.728;2022-07-25T18:32:16;9.00;;;3.80;;
14048;SDS011;7099;53.922;10.728;2022-07-25T18:36:41;7.83;;;3.10;;
14048;SDS011;7099;53.922;10.728;2022-07-25T18:41:07;10.73;;;3.17;;
14048;SDS011;7099;53.922;10.728;2022-07-25T18:45:52;4.53;;;2.30;;
14048;SDS011;7099;53.922;10.728;2022-07-25T18:50:18;11.60;;;3.00;;
14048;SDS011;7099;53.922;10.728;2022-07-25T18:54:43;6.90;;;2.40;;
14048;SDS011;7099;53.922;10.728;2022-07-25T18:59:09;4.60;;;2.10;;
14048;SDS011;7099;53.922;10.728;2022-07-25T19:03:35;4.50;;;2.20;;
14048;SDS011;7099;53.922;10.728;2022-07-25T19:08:02;11.20;;;2.60;;
14048;SDS011;7099;53.922;10.728;2022-07-25T19:12:28;5.97;;;2.70;;
14048;SDS011;7099;53.922;10.728;2022-07-25T19:16:54;6.80;;;2.30;;
14048;SDS011;7099;53.922;10.728;2022-07-25T19:21:21;9.13;;;2.38;;
14048;SDS011;7099;53.922;10.728;2022-07-25T19:25:46;4.60;;;2.20;;
14048;SDS011;7099;53.922;10.728;2022-07-25T19:30:11;8.33;;;2.30;;
14048;SDS011;7099;53.922;10.728;2022-07-25T19:34:41;5.73;;;2.27;;
14048;SDS011;7099;53.922;10.728;2022-07-25T19:39:06;5.00;;;2.70;;
14048;SDS011;7099;53.922;10.728;2022-07-25T19:43:31;4.97;;;2.40;;
14048;SDS011;7099;53.922;10.728;2022-07-25T19:47:57;7.10;;;2.60;;
14048;SDS011;7099;53.922;10.728;2022-07-25T19:52:24;7.20;;;2.55;;
14048;SDS011;7099;53.922;10.728;2022-07-25T19:56:49;6.80;;;2.60;;
14048;SDS011;7099;53.922;10.728;2022-07-25T20:01:15;12.50;;;3.23;;
14048;SDS011;7099;53.922;10.728;2022-07-25T20:05:41;10.63;;;2.90;;
14048;SDS011;7099;53.922;10.728;2022-07-25T20:10:07;8.47;;;3.17;;
14048;SDS011;7099;53.922;10.728;2022-07-25T20:14:33;7.97;;;3.20;;
14048;SDS011;7099;53.922;10.728;2022-07-25T20:18:59;5.30;;;2.40;;
14048;SDS011;7099;53.922;10.728;2022-07-25T20:23:24;8.40;;;2.33;;
14048;SDS011;7099;53.922;10.728;2022-07-25T20:27:50;8.05;;;2.75;;
14048;SDS011;7099;53.922;10.728;2022-07-25T20:32:15;8.10;;;2.87;;
14048;SDS011;7099;53.922;10.728;2022-07-25T20:36:40;9.53;;;3.10;;
14048;SDS011;7099;53.922;10.728;2022-07-25T20:41:06;9.10;;;2.83;;
14048;SDS011;7099;53.922;10.728;2022-07-25T20:45:31;5.13;;;3.17;;
14048;SDS011;7099;53.922;10.728;2022-07-25T20:49:57;5.27;;;3.30;;
14048;SDS011;7099;53.922;10.728;2022-07-25T20:54:22;9.70;;;3.40;;
14048;SDS011;7099;53.922;10.728;2022-07-25T20:58:47;10.40;;;3.30;;
14048;SDS011;7099;53.922;10.728;2022-07-25T21:03:12;5.07;;;2.90;;
14048;SDS011;7099;53.922;10.728;2022-07-25T21:07:38;6.85;;;3.05;;
14048;SDS011;7099;53.922;10.728;2022-07-25T21:12:03;9.02;;;2.72;;
14048;SDS011;7099;53.922;10.728;2022-07-25T21:16:29;9.13;;;3.30;;
14048;SDS011;7099;53.922;10.728;2022-07-25T21:20:55;9.37;;;3.50;;
14048;SDS011;7099;53.922;10.728;2022-07-25T21:25:20;7.00;;;2.80;;
14048;SDS011;7099;53.922;10.728;2022-07-25T21:29:45;8.10;;;3.07;;
14048;SDS011;7099;53.922;10.728;2022-07-25T21:34:11;11.17;;;3.10;;
14048;SDS011;7099;53.922;10.728;2022-07-25T21:38:36;7.03;;;3.13;;
14048;SDS011;7099;53.922;10.728;2022-07-25T21:43:01;10.97;;;3.00;;
14048;SDS011;7099;53.922;10.728;2022-07-25T21:47:29;12.03;;;2.80;;
14048;SDS011;7099;53.922;10.728;2022-07-25T21:51:54;5.20;;;3.13;;
14048;SDS011;7099;53.922;10.728;2022-07-25T21:56:21;13.57;;;3.20;;
14048;SDS011;7099;53.922;10.728;2022-07-25T22:00:47;13.53;;;3.33;;
14048;SDS011;7099;53.922;10.728;2022-07-25T22:05:13;7.53;;;3.40;;
14048;SDS011;7099;53.922;10.728;2022-07-25T22:09:42;4.70;;;3.10;;
14048;SDS011;7099;53.922;10.728;2022-07-25T22:14:08;10.00;;;3.60;;
14048;SDS011;7099;53.922;10.728;2022-07-25T22:18:33;8.23;;;3.35;;
14048;SDS011;7099;53.922;10.728;2022-07-25T22:22:59;13.20;;;3.40;;
14048;SDS011;7099;53.922;10.728;2022-07-25T22:27:24;10.52;;;3.63;;
14048;SDS011;7099;53.922;10.728;2022-07-25T22:31:49;11.93;;;3.20;;
14048;SDS011;7099;53.922;10.728;2022-07-25T22:36:15;8.93;;;3.13;;
14048;SDS011;7099;53.922;10.728;2022-07-25T22:40:40;14.33;;;3.97;;
14048;SDS011;7099;53.922;10.728;2022-07-25T22:45:06;10.30;;;3.60;;
14048;SDS011;7099;53.922;10.728;2022-07-25T22:49:32;15.60;;;3.67;;
14048;SDS011;7099;53.922;10.728;2022-07-25T22:53:57;15.87;;;3.80;;
14048;SDS011;7099;53.922;10.728;2022-07-25T22:58:23;8.90;;;3.27;;
14048;SDS011;7099;53.922;10.728;2022-07-25T23:02:50;9.60;;;3.90;;
14048;SDS011;7099;53.922;10.728;2022-07-25T23:07:16;10.87;;;3.53;;
14048;SDS011;7099;53.922;10.728;2022-07-25T23:11:41;12.83;;;3.60;;
14048;SDS011;7099;53.922;10.728;2022-07-25T23:16:06;7.67;;;3.63;;
14048;SDS011;7099;53.922;10.728;2022-07-25T23:20:34;9.63;;;3.73;;
14048;SDS011;7099;53.922;10.728;2022-07-25T23:24:59;13.07;;;3.33;;
14048;SDS011;7099;53.922;10.728;2022-07-25T23:29:25;14.23;;;3.50;;
14048;SDS011;7099;53.922;10.728;2022-07-25T23:33:50;8.40;;;3.75;;
14048;SDS011;7099;53.922;10.728;2022-07-25T23:38:15;17.90;;;4.13;;
14048;SDS011;7099;53.922;10.728;2022-07-25T23:42:41;9.97;;;3.40;;
14048;SDS011;7099;53.922;10.728;2022-07-25T23:47:06;10.07;;;3.40;;
14048;SDS011;7099;53.922;10.728;2022-07-25T23:51:34;10.07;;;3.70;;
14048;SDS011;7099;53.922;10.728;2022-07-25T23:56:00;9.73;;;3.40;;
